CST,Max TemperatureF,Mean TemperatureF,Min TemperatureF,Max Dew PointF,MeanDew PointF,Min DewpointF,Max Humidity, Mean Humidity, Min Humidity, Max Sea Level PressureIn, Mean Sea Level PressureIn, Min Sea Level PressureIn, Max VisibilityMiles, Mean VisibilityMiles, Min VisibilityMiles, Max Wind SpeedMPH, Mean Wind SpeedMPH, Max Gust SpeedMPH,PrecipitationIn, CloudCover, Events, WindDirDegrees
2013-1-1,16,9,1,1,-1,-6,79,66,53,30.37,30.30,30.22,10,10,10,10,5,13,0.00,1,,264
2013-1-2,30,20,9,25,16,2,88,76,54,30.20,30.12,30.04,10,8,3,14,8,,0.00,5,Snow,239
2013-1-3,31,21,11,26,13,7,85,73,61,30.42,30.33,30.19,10,10,8,23,11,27,T,4,Snow,286
2013-1-4,35,24,12,22,17,8,84,70,56,30.33,30.26,30.20,10,10,9,16,9,19,0.00,0,,220
2013-1-5,39,30,20,31,22,17,91,76,61,30.18,30.08,29.97,10,9,5,24,12,32,T,5,Snow,236
2013-1-6,28,22,15,18,14,8,74,66,58,30.35,30.26,30.13,10,10,7,26,11,31,T,2,Snow,269
2013-1-7,46,36,25,28,23,16,82,63,38,30.22,30.09,30.00,10,10,10,20,11,29,0.00,5,,187
2013-1-8,47,38,28,32,28,22,78,66,53,30.11,29.99,29.86,10,10,10,17,10,23,0.00,3,,189
2013-1-9,48,39,29,31,28,25,92,73,53,30.46,30.36,30.13,10,10,10,18,7,23,0.00,4,,227
2013-1-10,41,37,33,37,32,24,100,82,45,30.40,29.98,29.73,10,5,0,13,8,,0.08,8,Fog-Rain,115
2013-1-11,54,45,36,45,40,35,100,83,66,29.74,29.62,29.48,10,4,0,28,13,44,0.02,6,Fog,165
2013-1-12,53,35,16,37,16,6,85,70,55,30.14,29.97,29.63,10,10,7,32,16,37,0.00,7,,298
2013-1-13,21,15,8,7,3,0,67,59,51,30.38,30.21,30.05,10,10,9,23,13,28,T,2,Snow,306
2013-1-14,31,20,8,10,6,2,73,53,32,30.52,30.44,30.38,10,10,10,13,6,17,0.00,1,,220
2013-1-15,34,25,15,13,10,7,73,56,38,30.41,30.29,30.09,10,10,10,13,7,16,0.00,2,,194
2013-1-16,50,35,20,32,23,10,82,66,50,30.22,30.02,29.89,10,10,10,21,13,27,0.00,4,,271
2013-1-17,37,28,18,23,15,8,78,58,38,30.50,30.41,30.24,10,10,10,16,6,21,0.00,1,,281
2013-1-18,56,41,25,31,28,20,78,58,38,30.35,30.04,29.90,10,10,10,35,17,44,0.00,2,,215
2013-1-19,54,37,19,32,26,2,76,57,38,30.30,29.98,29.84,10,10,10,35,16,44,0.00,3,,270
2013-1-20,19,14,9,9,5,0,76,61,45,30.45,30.39,30.32,10,6,0,22,11,28,0.03,6,Snow,314
2013-1-21,11,5,-2,0,-5,-14,73,62,51,30.50,30.42,30.34,10,10,7,26,16,33,T,4,Snow,310
2013-1-22,17,11,4,3,-2,-6,69,58,46,30.48,30.42,30.35,10,10,10,10,5,14,0.00,7,,248
2013-1-23,30,18,6,15,6,-5,76,64,51,30.57,30.33,30.22,10,10,10,23,14,30,0.00,4,,298
2013-1-24,21,13,4,4,-4,-9,62,48,34,30.66,30.49,30.26,10,10,10,18,11,25,0.00,7,,103
2013-1-25,40,28,15,22,13,0,80,63,45,30.33,30.19,30.13,10,10,9,29,12,34,0.00,2,,283
2013-1-26,37,23,9,14,6,0,66,49,32,30.40,30.29,30.18,10,10,10,18,10,23,0.00,4,,108
2013-1-27,42,37,32,41,31,14,100,72,43,30.15,29.91,29.75,10,3,0,18,10,24,0.20,8,Fog-Rain,133
2013-1-28,49,42,35,47,39,34,100,95,89,29.93,29.77,29.58,7,1,0,14,7,21,0.36,8,Fog-Rain-Thunderstorm,113
2013-1-29,59,46,33,56,39,29,100,91,82,29.69,29.58,29.52,10,6,0,24,12,31,0.05,8,Fog-Rain-Snow-Thunderstorm,321
2013-1-30,33,24,15,29,19,8,92,80,68,29.91,29.68,29.49,10,4,0,35,20,46,0.27,8,Fog-Snow,327
2013-1-31,15,8,0,9,-1,-10,80,71,62,30.44,30.14,29.86,10,8,3,32,20,37,T,5,Snow,302